Time;durP1;ratioP1;P1;durP2;ratioP2;P2;SDS_P1;SDS_P2;PMS_P1;PMS_P2;Temp;Humidity;BMP_temperature;BMP_pressure;BME280_temperature;BME280_humidity;BME280_pressure;Samples;Min_cycle;Max_cycle;Signal;HPM_P1;HPM_P2
2023/10/09 00:02:11;;;;;;;29.85;16.73;;;;;;;12.94;100.00;101898.69;4977371;28;20137;-74
2023/10/09 00:04:44;;;;;;;27.63;16.13;;;;;;;12.95;100.00;101886.31;4966495;28;22428;-75
2023/10/09 00:07:12;;;;;;;32.50;17.60;;;;;;;12.96;100.00;101885.41;4967828;28;20043;-75
2023/10/09 00:10:00;;;;;;;32.95;19.13;;;;;;;12.94;100.00;101871.34;4966655;28;20050;-73
2023/10/09 00:12:48;;;;;;;34.90;18.75;;;;;;;12.91;100.00;101882.03;4966053;28;20046;-75
2023/10/09 00:15:17;;;;;;;31.23;18.00;;;;;;;12.89;100.00;101868.81;4965640;28;20051;-75
2023/10/09 00:17:46;;;;;;;32.15;18.75;;;;;;;12.85;100.00;101888.31;4969759;28;20495;-74
2023/10/09 00:20:23;;;;;;;31.58;18.13;;;;;;;12.82;100.00;101883.94;4970961;28;20046;-74
2023/10/09 00:22:51;;;;;;;33.13;18.75;;;;;;;12.78;100.00;101873.47;4971352;28;20039;-74
2023/10/09 00:25:23;;;;;;;31.45;19.38;;;;;;;12.78;100.00;101869.06;4970430;28;20042;-74
2023/10/09 00:27:51;;;;;;;37.30;20.42;;;;;;;12.75;100.00;101863.84;4971912;28;20110;-74
2023/10/09 00:30:21;;;;;;;31.35;18.08;;;;;;;12.73;100.00;101863.88;4969415;28;20170;-74
2023/10/09 00:33:23;;;;;;;35.92;20.38;;;;;;;12.74;100.00;101854.16;4971413;28;20066;-74
2023/10/09 00:41:03;;;;;;;37.85;22.63;;;;;;;12.79;100.00;101852.28;4985288;28;20038;-74
2023/10/09 00:43:31;;;;;;;40.38;23.02;;;;;;;12.85;100.00;101848.63;4959240;28;20043;-74
2023/10/09 00:46:08;;;;;;;38.35;22.45;;;;;;;12.85;100.00;101849.47;4961492;28;20051;-74
2023/10/09 00:48:40;;;;;;;38.83;22.20;;;;;;;12.87;100.00;101847.69;4969004;28;20078;-74
2023/10/09 00:51:18;;;;;;;32.13;18.83;;;;;;;12.88;100.00;101862.66;4966275;28;20070;-74
2023/10/09 00:53:51;;;;;;;31.88;19.52;;;;;;;12.88;100.00;101857.34;4968643;28;20039;-73
2023/10/09 00:59:13;;;;;;;33.22;20.85;;;;;;;12.93;100.00;101853.72;4969555;28;20126;-74
2023/10/09 01:02:19;;;;;;;32.85;19.65;;;;;;;12.95;100.00;101852.78;4969475;28;20051;-75
2023/10/09 01:04:43;;;;;;;29.38;18.58;;;;;;;12.98;100.00;101857.13;4961094;28;20137;-75
2023/10/09 01:07:20;;;;;;;28.52;18.48;;;;;;;12.98;100.00;101844.75;4969938;28;20117;-74
2023/10/09 01:09:51;;;;;;;34.95;20.50;;;;;;;12.96;100.00;101843.94;4968072;28;20046;-75
2023/10/09 01:12:18;;;;;;;32.20;17.92;;;;;;;12.93;100.00;101849.31;4969474;28;20122;-75
2023/10/09 01:14:54;;;;;;;30.15;18.02;;;;;;;12.89;100.00;101853.81;4969885;28;20673;-75
2023/10/09 01:17:45;;;;;;;32.53;19.00;;;;;;;12.84;100.00;101854.81;4970828;28;20057;-75
2023/10/09 01:20:16;;;;;;;27.58;18.15;;;;;;;12.81;100.00;101857.53;4969622;28;20050;-76
2023/10/09 01:22:44;;;;;;;31.80;18.52;;;;;;;12.76;100.00;101847.06;4970172;28;20062;-77
2023/10/09 01:25:11;;;;;;;31.48;18.52;;;;;;;12.73;100.00;101855.94;4973966;28;20590;-76
2023/10/09 01:27:40;;;;;;;32.65;19.42;;;;;;;12.72;100.00;101851.56;4968654;28;20121;-76
2023/10/09 01:30:14;;;;;;;33.00;18.85;;;;;;;12.74;100.00;101843.56;4970136;28;20053;-76
2023/10/09 01:32:43;;;;;;;31.38;19.33;;;;;;;12.80;100.00;101847.84;4969520;28;20062;-76
2023/10/09 01:35:21;;;;;;;37.30;21.30;;;;;;;12.85;100.00;101848.63;4968939;28;20031;-77
2023/10/09 01:37:50;;;;;;;37.90;23.30;;;;;;;12.92;100.00;101830.84;4970244;28;20122;-75
2023/10/09 01:40:36;;;;;;;39.30;23.60;;;;;;;13.00;100.00;101829.72;4967885;28;20117;-76
2023/10/09 01:43:04;;;;;;;41.30;24.85;;;;;;;13.10;100.00;101826.84;4968526;28;20720;-71
2023/10/09 01:45:41;;;;;;;38.40;23.75;;;;;;;13.17;100.00;101829.28;4969129;28;20042;-73
2023/10/09 01:48:12;;;;;;;48.78;26.00;;;;;;;13.30;100.00;101829.84;4965634;28;20129;-73
2023/10/09 01:50:41;;;;;;;40.67;26.25;;;;;;;13.43;100.00;101834.84;4962803;28;20046;-73
2023/10/09 01:53:09;;;;;;;37.20;25.23;;;;;;;13.54;100.00;101830.16;4967930;28;20639;-73
2023/10/09 01:55:39;;;;;;;42.10;26.13;;;;;;;13.66;100.00;101834.22;4965259;28;20582;-73
2023/10/09 01:58:23;;;;;;;37.95;24.33;;;;;;;13.77;100.00;101833.94;4967477;28;20043;-73
2023/10/09 02:01:01;;;;;;;33.45;23.73;;;;;;;13.88;100.00;101826.56;4966780;28;20057;-75
2023/10/09 02:03:29;;;;;;;36.03;21.95;;;;;;;13.98;100.00;101828.03;4969749;28;20043;-74
2023/10/09 02:05:59;;;;;;;31.80;22.30;;;;;;;14.09;100.00;101824.22;4969263;28;20123;-73
2023/10/09 02:08:29;;;;;;;33.15;22.02;;;;;;;14.16;100.00;101823.09;4970055;28;20586;-73
2023/10/09 02:10:56;;;;;;;33.25;21.58;;;;;;;14.25;100.00;101827.25;4968894;28;20133;-74
2023/10/09 02:13:29;;;;;;;31.48;21.63;;;;;;;14.33;100.00;101824.38;4983967;28;20043;-74
2023/10/09 02:18:52;;;;;;;30.08;18.60;;;;;;;14.45;100.00;101824.00;4971702;28;20339;-74
2023/10/09 02:21:40;;;;;;;31.38;19.63;;;;;;;14.51;100.00;101822.94;4971692;28;20039;-74
2023/10/09 02:24:26;;;;;;;27.70;18.05;;;;;;;14.57;100.00;101828.94;4969602;28;20591;-74
2023/10/09 02:29:23;;;;;;;28.10;18.35;;;;;;;14.67;100.00;101810.94;4968712;28;20046;-73
2023/10/09 02:32:00;;;;;;;28.58;17.45;;;;;;;14.70;100.00;101805.56;4969371;28;20050;-73
2023/10/09 02:34:29;;;;;;;26.80;17.70;;;;;;;14.72;100.00;101798.41;4968844;28;20510;-73
2023/10/09 02:37:05;;;;;;;29.45;18.98;;;;;;;14.77;100.00;101800.91;4968820;28;20054;-72
2023/10/09 02:39:43;;;;;;;29.50;18.67;;;;;;;14.79;100.00;101801.75;4950160;28;20110;-73
2023/10/09 02:44:46;;;;;;;28.63;17.08;;;;;;;14.82;100.00;101792.81;4970204;28;20038;-73
2023/10/09 02:50:11;;;;;;;27.08;18.33;;;;;;;14.84;100.00;101794.47;4971689;28;20117;-73
2023/10/09 02:52:42;;;;;;;24.52;18.45;;;;;;;14.86;100.00;101778.50;4957876;28;20187;-76
2023/10/09 02:55:22;;;;;;;26.58;18.38;;;;;;;14.86;100.00;101771.41;4968052;28;20162;-75
2023/10/09 02:57:56;;;;;;;25.90;17.00;;;;;;;14.88;100.00;101768.69;4967443;28;20127;-75
2023/10/09 03:00:30;;;;;;;27.93;17.60;;;;;;;14.87;100.00;101773.16;4968961;28;20685;-75
2023/10/09 03:02:58;;;;;;;28.23;17.90;;;;;;;14.87;100.00;101773.16;4981285;28;20863;-74
2023/10/09 03:05:28;;;;;;;21.27;16.27;;;;;;;14.87;100.00;101781.13;4967493;28;20109;-75
2023/10/09 03:07:56;;;;;;;27.08;17.80;;;;;;;14.89;100.00;101781.06;4968459;28;20060;-75
2023/10/09 03:10:25;;;;;;;24.75;16.58;;;;;;;14.89;100.00;101773.97;4968946;28;20065;-75
2023/10/09 03:12:55;;;;;;;24.67;16.02;;;;;;;14.89;100.00;101773.09;4966759;28;20053;-75
2023/10/09 03:15:22;;;;;;;26.50;17.83;;;;;;;14.89;100.00;101770.44;4956389;28;20559;-77
2023/10/09 03:17:51;;;;;;;25.25;17.50;;;;;;;14.89;100.00;101758.03;4965538;28;20202;-76
2023/10/09 03:20:18;;;;;;;25.35;16.50;;;;;;;14.90;100.00;101748.28;4967190;28;20081;-76
2023/10/09 03:22:47;;;;;;;25.20;17.33;;;;;;;14.89;100.00;101752.75;4968386;28;20694;-74
2023/10/09 03:25:16;;;;;;;27.02;17.65;;;;;;;14.89;100.00;101744.78;4950258;28;20147;-75
2023/10/09 03:27:47;;;;;;;25.15;17.05;;;;;;;14.90;100.00;101750.94;4958896;28;20043;-75
2023/10/09 03:30:22;;;;;;;24.40;17.38;;;;;;;14.89;100.00;101750.09;4967159;28;20035;-74
2023/10/09 03:32:54;;;;;;;24.52;16.92;;;;;;;14.89;100.00;101738.56;4961926;28;20124;-73
2023/10/09 03:35:27;;;;;;;24.63;17.25;;;;;;;14.89;100.00;101736.81;4952976;28;20149;-73
2023/10/09 03:38:11;;;;;;;22.60;16.35;;;;;;;14.90;100.00;101733.19;4968175;28;20038;-73
2023/10/09 03:40:43;;;;;;;28.85;17.15;;;;;;;14.94;100.00;101741.06;4967910;28;20439;-75
2023/10/09 03:43:11;;;;;;;24.13;16.63;;;;;;;14.95;100.00;101729.53;4967986;28;20139;-70
2023/10/09 03:45:45;;;;;;;25.80;17.25;;;;;;;14.97;100.00;101725.91;4968164;28;20043;-69
2023/10/09 03:48:20;;;;;;;25.33;16.65;;;;;;;14.98;100.00;101721.47;4968767;28;20518;-70
2023/10/09 03:50:48;;;;;;;21.27;15.82;;;;;;;15.01;100.00;101724.00;4962617;28;20078;-69
2023/10/09 03:53:16;;;;;;;23.13;16.55;;;;;;;15.03;100.00;101735.44;4968122;28;20043;-69
2023/10/09 03:55:43;;;;;;;23.45;15.88;;;;;;;15.05;100.00;101746.88;4968039;28;20046;-70
2023/10/09 03:58:11;;;;;;;24.35;16.08;;;;;;;15.07;100.00;101739.75;4966975;28;20114;-76
2023/10/09 04:00:45;;;;;;;22.73;15.88;;;;;;;15.09;100.00;101739.69;4966310;28;20660;-77
2023/10/09 04:03:14;;;;;;;23.63;16.17;;;;;;;15.10;100.00;101742.28;4967712;28;20070;-77
2023/10/09 04:05:43;;;;;;;22.88;15.82;;;;;;;15.13;100.00;101728.03;4967680;28;20053;-77
2023/10/09 04:08:25;;;;;;;23.55;16.08;;;;;;;15.15;100.00;101719.09;4967316;28;20039;-77
2023/10/09 04:11:01;;;;;;;;;;;;;;;15.18;100.00;101724.28;4967556;28;20046;-77
2023/10/09 04:13:40;;;;;;;29.05;16.00;;;;;;;15.22;100.00;101733.03;4966298;28;19928;-76
2023/10/09 04:16:26;;;;;;;25.63;15.30;;;;;;;15.23;100.00;101724.13;4965917;28;20082;-77
2023/10/09 04:18:56;;;;;;;25.67;15.98;;;;;;;15.25;100.00;101718.75;4966109;28;20047;-78
2023/10/09 04:21:36;;;;;;;25.63;15.20;;;;;;;15.25;100.00;101716.97;4967478;28;20058;-77
2023/10/09 04:26:44;;;;;;;21.33;15.38;;;;;;;15.27;100.00;101725.72;4967017;28;20121;-75
2023/10/09 04:29:26;;;;;;;22.98;14.70;;;;;;;15.29;100.00;101718.59;4967078;28;20753;-75
2023/10/09 04:32:00;;;;;;;23.08;15.85;;;;;;;15.29;100.00;101721.25;4955228;28;20054;-75
2023/10/09 04:37:00;;;;;;;21.98;15.20;;;;;;;15.30;100.00;101730.94;4963215;28;20110;-74
2023/10/09 04:47:37;;;;;;;20.90;13.90;;;;;;;15.43;100.00;101762.41;4964310;28;20063;-74
2023/10/09 04:50:14;;;;;;;20.33;14.85;;;;;;;15.44;100.00;101762.31;4966074;28;20046;-73
2023/10/09 05:03:24;;;;;;;28.52;16.85;;;;;;;15.41;100.00;101770.44;4958278;28;20509;-73
2023/10/09 05:06:20;;;;;;;24.25;15.50;;;;;;;15.43;100.00;101770.38;4965765;28;20042;-73
2023/10/09 05:08:45;;;;;;;28.45;16.73;;;;;;;15.46;100.00;101764.94;4965267;28;20054;-74
2023/10/09 05:11:59;;;;;;;18.02;14.70;;;;;;;15.48;100.00;101765.72;4965752;28;20717;-74
2023/10/09 05:14:12;;;;;;;30.73;16.77;;;;;;;15.48;100.00;101763.97;4966756;28;20057;-74
2023/10/09 05:16:55;;;;;;;26.42;16.20;;;;;;;15.50;100.00;101780.72;4962246;28;20557;-74
2023/10/09 05:19:41;;;;;;;29.27;15.30;;;;;;;15.51;100.00;101761.19;4959778;28;20142;-74
2023/10/09 05:22:36;;;;;;;32.08;16.35;;;;;;;15.54;100.00;101752.25;4963634;28;20466;-74
2023/10/09 05:25:15;;;;;;;26.30;16.42;;;;;;;15.52;100.00;101743.44;4954119;28;20026;-75
2023/10/09 05:27:45;;;;;;;31.30;16.77;;;;;;;15.48;100.00;101756.00;4961003;28;20055;-76
2023/10/09 05:30:24;;;;;;;34.08;18.83;;;;;;;15.45;100.00;101764.06;4970710;28;20039;-75
2023/10/09 05:33:03;;;;;;;29.20;16.27;;;;;;;15.43;100.00;101776.53;4963063;28;20049;-75
2023/10/09 05:35:39;;;;;;;32.05;17.23;;;;;;;15.41;100.00;101775.75;4986469;28;20046;-75
2023/10/09 05:38:15;;;;;;;28.17;17.20;;;;;;;15.40;100.00;101789.94;4970001;28;20047;-74
2023/10/09 05:40:43;;;;;;;34.10;17.30;;;;;;;15.39;100.00;101798.84;4964745;28;20067;-74
2023/10/09 05:45:29;;;;;;;38.63;17.40;;;;;;;15.36;100.00;101799.78;4948127;28;20047;-75
2023/10/09 05:46:08;;;;;;;42.30;17.73;;;;;;;15.36;100.00;101801.59;4965555;28;20105;-74
2023/10/09 06:04:18;;;;;;;23.20;16.55;;;;;;;15.43;100.00;101794.28;4967571;28;20419;-75
2023/10/09 06:06:55;;;;;;;26.65;16.30;;;;;;;15.45;100.00;101814.53;4974760;28;20498;-75
2023/10/09 06:09:49;;;;;;;25.48;15.73;;;;;;;15.46;100.00;101815.44;4990436;28;20054;-75
2023/10/09 06:15:04;;;;;;;37.85;17.27;;;;;;;15.47;100.00;101827.75;4966173;28;20492;-74
2023/10/09 06:17:44;;;;;;;25.70;16.73;;;;;;;15.50;100.00;101822.34;4969285;28;20047;-73
2023/10/09 06:22:56;;;;;;;27.30;17.00;;;;;;;15.52;100.00;101820.50;4969067;28;20530;-74
2023/10/09 06:25:32;;;;;;;30.75;15.98;;;;;;;15.56;100.00;101822.16;4968268;28;20498;-74
2023/10/09 06:27:59;;;;;;;31.33;16.25;;;;;;;15.56;100.00;101821.28;4969031;28;20134;-73
2023/10/09 06:30:28;;;;;;;28.55;16.48;;;;;;;15.57;100.00;101823.84;4967549;28;21675;-74
2023/10/09 06:32:58;;;;;;;28.23;16.38;;;;;;;15.61;100.00;101819.34;4970179;28;20047;-74
2023/10/09 06:35:32;;;;;;;24.13;16.30;;;;;;;15.63;100.00;101814.81;4968771;28;20043;-74
2023/10/09 06:46:40;;;;;;;24.27;15.98;;;;;;;15.66;100.00;101842.16;4950947;28;20047;-74
2023/10/09 06:48:55;;;;;;;29.73;16.33;;;;;;;15.67;100.00;101841.22;4950641;28;20043;-74
2023/10/09 06:59:15;;;;;;;23.13;15.45;;;;;;;15.73;100.00;101796.75;4966889;28;20046;-74
2023/10/09 07:01:43;;;;;;;25.55;17.73;;;;;;;15.72;100.00;101806.50;4968043;28;20066;-73
2023/10/09 07:04:19;;;;;;;31.70;17.13;;;;;;;15.73;100.00;101818.88;4967462;28;20423;-73
2023/10/09 07:06:56;;;;;;;27.92;17.45;;;;;;;15.73;100.00;101829.50;4967278;28;20523;-73
2023/10/09 07:09:27;;;;;;;25.92;16.33;;;;;;;15.73;100.00;101813.53;4967150;28;20047;-73
2023/10/09 07:17:21;;;;;;;25.85;16.88;;;;;;;15.86;100.00;101808.69;4969147;28;20042;-73
2023/10/09 07:27:48;;;;;;;26.60;16.55;;;;;;;15.96;100.00;101799.44;4963309;28;20049;-74
2023/10/09 07:33:05;;;;;;;25.70;16.23;;;;;;;16.01;100.00;101817.91;4949611;28;20098;-74
2023/10/09 07:38:19;;;;;;;25.73;16.42;;;;;;;16.04;100.00;101846.16;4949725;28;20047;-74
2023/10/09 07:46:52;;;;;;;29.48;16.08;;;;;;;16.14;100.00;101847.56;4987765;28;20605;-74
2023/10/09 07:49:26;;;;;;;32.22;15.95;;;;;;;16.17;100.00;101838.56;4988165;28;20055;-74
2023/10/09 07:51:53;;;;;;;27.70;15.23;;;;;;;16.18;100.00;101857.13;4988171;28;20069;-74
2023/10/09 07:54:32;;;;;;;27.13;16.65;;;;;;;16.21;100.00;101859.69;4988125;28;20051;-73
2023/10/09 07:57:08;;;;;;;25.17;16.05;;;;;;;16.25;100.00;101848.00;4987845;28;20088;-74
2023/10/09 07:59:40;;;;;;;29.10;16.75;;;;;;;16.26;100.00;101844.44;4986880;28;20070;-74
2023/10/09 08:02:13;;;;;;;25.98;16.65;;;;;;;16.28;100.00;101853.19;4987559;28;20418;-75
2023/10/09 08:04:49;;;;;;;27.40;16.42;;;;;;;16.30;100.00;101863.78;4982033;28;20098;-74
2023/10/09 08:07:19;;;;;;;27.85;16.38;;;;;;;16.30;100.00;101848.69;4968261;28;20542;-73
2023/10/09 08:17:54;;;;;;;25.30;16.88;;;;;;;16.49;100.00;101778.78;4963125;28;20068;-70
2023/10/09 08:20:27;;;;;;;24.77;16.05;;;;;;;16.58;100.00;101778.41;4956321;28;20500;-71
2023/10/09 08:22:58;;;;;;;24.63;15.32;;;;;;;16.67;100.00;101765.66;4967055;28;20074;-71
2023/10/09 08:25:26;;;;;;;27.77;15.52;;;;;;;16.75;100.00;101782.19;4967691;28;20515;-71
2023/10/09 08:27:58;;;;;;;30.15;16.58;;;;;;;16.81;99.55;101767.75;4965932;28;20495;-71
2023/10/09 08:33:05;;;;;;;33.05;17.55;;;;;;;16.97;98.33;101768.00;4965160;28;20442;-71
2023/10/09 08:36:14;;;;;;;26.33;15.23;;;;;;;17.07;98.28;101769.34;4967411;28;20038;-71
2023/10/09 08:38:34;;;;;;;26.65;14.35;;;;;;;17.19;97.95;101789.25;4967399;28;20508;-71
2023/10/09 08:41:16;;;;;;;33.22;16.90;;;;;;;17.29;97.72;101800.38;4969297;28;20046;-71
2023/10/09 08:43:50;;;;;;;25.85;15.23;;;;;;;17.39;96.23;101820.38;4972054;28;20117;-71
2023/10/09 08:46:28;;;;;;;24.67;14.48;;;;;;;17.46;95.93;101827.16;4965340;28;20047;-72
2023/10/09 08:49:04;;;;;;;24.50;14.93;;;;;;;17.52;95.67;101829.53;4951964;28;20044;-72
2023/10/09 08:51:35;;;;;;;24.45;14.82;;;;;;;17.57;95.32;101833.81;4955669;28;20058;-73
2023/10/09 08:54:02;;;;;;;22.05;14.20;;;;;;;17.61;94.51;101836.28;4963901;28;20047;-70
2023/10/09 08:56:30;;;;;;;20.02;14.38;;;;;;;17.68;93.89;101834.22;4971500;28;20499;-70
2023/10/09 08:59:02;;;;;;;24.25;14.23;;;;;;;17.73;94.06;101834.84;4970915;28;20057;-70
2023/10/09 09:01:32;;;;;;;22.67;14.90;;;;;;;17.78;93.44;101838.19;4965073;28;20035;-71
2023/10/09 09:04:02;;;;;;;22.77;14.07;;;;;;;17.84;92.52;101842.41;4968207;28;20415;-71
2023/10/09 09:06:40;;;;;;;32.88;14.77;;;;;;;17.88;92.80;101819.97;4952025;28;20051;-71
2023/10/09 09:09:15;;;;;;;20.98;13.75;;;;;;;17.97;92.58;101824.06;4968327;28;20533;-71
2023/10/09 09:11:49;;;;;;;25.63;13.75;;;;;;;18.04;92.07;101841.50;4968303;28;20049;-71
2023/10/09 09:14:21;;;;;;;32.97;14.77;;;;;;;18.12;90.90;101844.69;4968981;28;20042;-71
2023/10/09 09:16:49;;;;;;;20.77;13.63;;;;;;;18.19;90.51;101842.59;4968449;28;20046;-71
2023/10/09 09:19:19;;;;;;;27.83;14.68;;;;;;;18.27;89.84;101850.25;4969193;28;20047;-72
2023/10/09 09:21:56;;;;;;;26.52;14.77;;;;;;;18.31;89.68;101859.84;4969892;28;20043;-72
2023/10/09 09:26:58;;;;;;;23.30;14.55;;;;;;;18.40;89.13;101855.88;4969995;28;20054;-72
2023/10/09 09:29:36;;;;;;;23.58;14.65;;;;;;;18.46;88.65;101861.78;4969677;28;20066;-71
2023/10/09 09:32:21;;;;;;;22.90;14.63;;;;;;;18.52;87.79;101862.44;4970409;28;20554;-71
2023/10/09 09:35:01;;;;;;;18.85;13.88;;;;;;;18.57;87.03;101871.09;4967946;28;20443;-72
2023/10/09 09:40:29;;;;;;;19.98;13.45;;;;;;;18.69;86.30;101867.84;4951788;28;20058;-71
2023/10/09 09:43:06;;;;;;;26.58;13.90;;;;;;;18.78;86.51;101874.50;4964953;28;20055;-71
2023/10/09 09:45:43;;;;;;;25.38;14.07;;;;;;;18.83;85.64;101875.16;4968793;28;20045;-71
2023/10/09 09:48:10;;;;;;;22.70;13.98;;;;;;;18.83;85.60;101882.31;4970259;28;20097;-72
2023/10/09 09:50:43;;;;;;;30.73;15.20;;;;;;;18.83;85.55;101885.84;4966636;28;20507;-72
2023/10/09 09:53:18;;;;;;;21.15;13.98;;;;;;;18.86;85.45;101879.50;4969957;28;20068;-72
2023/10/09 09:55:57;;;;;;;26.65;14.25;;;;;;;18.86;85.26;101887.50;4969996;28;20126;-71
2023/10/09 09:58:32;;;;;;;28.33;14.95;;;;;;;18.87;86.07;101876.72;4968446;28;20388;-71
2023/10/09 10:01:22;;;;;;;25.55;14.82;;;;;;;18.92;85.27;101898.75;4963702;28;20484;-72
2023/10/09 10:03:57;;;;;;;22.30;14.27;;;;;;;18.95;85.16;101900.44;4970312;28;20458;-71
2023/10/09 10:06:28;;;;;;;25.40;14.63;;;;;;;19.02;85.88;101890.31;4970377;28;20034;-71
2023/10/09 10:08:55;;;;;;;20.25;14.63;;;;;;;19.07;85.91;101889.16;4971117;28;20799;-72
2023/10/09 10:12:09;;;;;;;24.92;15.15;;;;;;;19.17;85.48;101889.56;4968460;28;20570;-72
2023/10/09 10:14:58;;;;;;;20.92;14.75;;;;;;;19.21;85.09;101885.78;5005194;28;20062;-72
2023/10/09 10:17:29;;;;;;;23.42;15.20;;;;;;;19.26;85.18;101893.56;5004936;28;20042;-72
2023/10/09 10:22:48;;;;;;;24.77;14.00;;;;;;;19.43;84.87;101879.34;4969849;28;20625;-72
2023/10/09 10:25:32;;;;;;;22.33;14.43;;;;;;;19.51;84.07;101878.97;4968361;28;20057;-72
2023/10/09 10:31:09;;;;;;;20.35;13.10;;;;;;;19.60;83.61;101883.84;4957957;28;20525;-71
2023/10/09 10:33:55;;;;;;;23.02;14.27;;;;;;;19.68;83.90;101878.94;4969262;28;20149;-71
2023/10/09 10:36:23;;;;;;;23.77;13.40;;;;;;;19.70;83.17;101882.41;4968947;28;20066;-72
2023/10/09 10:39:21;;;;;;;21.48;14.20;;;;;;;19.78;83.79;101883.81;4968606;28;20070;-71
2023/10/09 10:41:59;;;;;;;30.85;14.35;;;;;;;19.84;82.43;101883.50;4971158;28;20057;-72
2023/10/09 10:44:36;;;;;;;19.83;12.73;;;;;;;19.87;81.88;101878.00;4978033;28;20626;-72
2023/10/09 10:47:24;;;;;;;19.60;13.73;;;;;;;19.96;82.91;101876.66;4967635;28;20038;-71
2023/10/09 10:49:58;;;;;;;17.17;12.63;;;;;;;20.06;81.92;101880.56;4969170;28;20126;-72
2023/10/09 10:52:36;;;;;;;19.90;12.82;;;;;;;20.12;81.88;101874.88;4968843;28;20117;-71
2023/10/09 10:58:01;;;;;;;25.33;11.75;;;;;;;20.27;81.26;101891.91;4967662;28;20834;-71
2023/10/09 11:03:54;;;;;;;18.73;12.20;;;;;;;20.37;79.29;101870.84;4964598;28;20047;-72
2023/10/09 11:06:36;;;;;;;20.75;12.85;;;;;;;20.39;79.16;101873.44;4960786;28;20159;-72
2023/10/09 11:09:09;;;;;;;20.80;12.23;;;;;;;20.48;79.28;101887.19;4967154;28;20054;-72
2023/10/09 11:11:46;;;;;;;19.95;11.93;;;;;;;20.55;78.63;101890.34;4967624;28;20412;-72
2023/10/09 11:14:14;;;;;;;18.48;11.13;;;;;;;20.50;78.68;101895.13;4966463;28;20077;-72
2023/10/09 11:16:42;;;;;;;19.92;12.50;;;;;;;20.45;79.16;101891.84;4966782;28;20057;-71
2023/10/09 11:19:22;;;;;;;21.50;12.80;;;;;;;20.44;79.59;101884.78;4968565;28;20089;-72
2023/10/09 11:21:58;;;;;;;20.88;12.23;;;;;;;20.51;80.04;101879.91;4969083;28;20049;-72
2023/10/09 11:24:35;;;;;;;18.30;12.10;;;;;;;20.60;79.80;101879.41;4967869;28;20114;-71
2023/10/09 11:27:05;;;;;;;21.65;12.55;;;;;;;20.73;78.93;101874.22;4968158;28;20392;-72
2023/10/09 11:32:22;;;;;;;24.95;11.90;;;;;;;20.93;78.39;101865.06;4967409;28;20621;-72
2023/10/09 11:34:54;;;;;;;18.60;11.15;;;;;;;21.06;78.25;101865.22;4966938;28;20681;-72
2023/10/09 11:40:00;;;;;;;23.80;10.40;;;;;;;21.29;76.86;101858.50;4968196;28;20057;-73
2023/10/09 11:42:48;;;;;;;23.35;11.00;;;;;;;21.34;76.07;101858.22;4974160;28;20058;-72
2023/10/09 11:45:29;;;;;;;17.13;11.00;;;;;;;21.34;76.90;101866.25;4962909;28;20050;-70
2023/10/09 11:48:21;;;;;;;23.23;10.23;;;;;;;21.35;76.19;101866.16;4963857;28;20085;-71
2023/10/09 11:50:55;;;;;;;19.42;10.30;;;;;;;21.30;77.47;101862.03;4963885;28;20043;-71
2023/10/09 11:55:53;;;;;;;22.40;10.02;;;;;;;21.23;74.88;101862.41;4957952;28;20039;-70
2023/10/09 11:58:25;;;;;;;18.73;8.52;;;;;;;21.18;75.17;101859.13;4960198;28;20049;-70
2023/10/09 12:01:03;;;;;;;19.30;9.02;;;;;;;21.19;75.03;101870.72;4958816;28;20102;-71
2023/10/09 12:03:32;;;;;;;28.75;10.18;;;;;;;21.19;75.32;101868.03;4959572;28;20044;-70
2023/10/09 12:06:05;;;;;;;16.98;9.32;;;;;;;21.20;75.51;101872.44;4957716;28;20562;-71
2023/10/09 12:08:34;;;;;;;21.98;9.77;;;;;;;21.20;76.33;101869.75;4954331;28;20050;-71
2023/10/09 12:11:08;;;;;;;21.40;9.18;;;;;;;21.26;76.22;101875.59;4962133;28;20039;-71
2023/10/09 12:13:42;;;;;;;21.30;9.02;;;;;;;21.31;76.03;101861.94;4964184;28;20121;-70
2023/10/09 12:16:09;;;;;;;;;;;;;;;21.35;75.61;101873.34;4965232;28;20092;-70
2023/10/09 12:18:40;;;;;;;20.10;8.98;;;;;;;21.36;75.68;101867.88;4966812;28;19930;-70
2023/10/09 12:21:15;;;;;;;19.98;8.60;;;;;;;21.36;75.71;101872.41;4966104;28;20039;-70
2023/10/09 12:23:47;;;;;;;;;;;;;;;21.32;75.05;101869.00;4963624;28;20118;-70
2023/10/09 12:26:14;;;;;;;14.48;7.45;;;;;;;21.31;75.59;101867.31;4967269;28;19921;-70
2023/10/09 12:28:45;;;;;;;16.77;7.63;;;;;;;21.32;75.01;101865.47;4967451;28;20110;-70
2023/10/09 12:31:15;;;;;;;17.35;8.13;;;;;;;21.34;75.46;101867.09;4963778;28;20069;-70
2023/10/09 12:33:42;;;;;;;16.38;8.13;;;;;;;21.36;75.50;101865.19;4958977;28;20066;-71
2023/10/09 12:36:19;;;;;;;25.08;8.32;;;;;;;21.38;75.19;101857.06;4954527;28;20043;-71
2023/10/09 12:38:58;;;;;;;18.45;8.70;;;;;;;21.39;75.06;101856.09;4953378;28;20458;-70
2023/10/09 12:41:33;;;;;;;19.00;9.07;;;;;;;21.46;75.57;101852.13;4962351;28;20451;-71
2023/10/09 12:44:01;;;;;;;12.65;7.88;;;;;;;21.50;75.67;101858.16;4965343;28;20035;-71
2023/10/09 12:46:32;;;;;;;15.95;8.00;;;;;;;21.54;75.06;101847.16;4955038;28;20036;-70
2023/10/09 12:49:01;;;;;;;21.65;8.25;;;;;;;21.62;74.95;101844.00;4955984;28;20042;-70
2023/10/09 12:51:30;;;;;;;16.90;7.70;;;;;;;21.64;75.85;101847.47;4964842;28;20533;-70
2023/10/09 12:54:01;;;;;;;18.27;8.00;;;;;;;21.70;75.96;101839.06;4959089;28;20039;-70
2023/10/09 12:56:37;;;;;;;22.20;8.65;;;;;;;21.80;76.04;101835.78;4965505;28;20046;-71
2023/10/09 12:59:07;;;;;;;22.95;8.30;;;;;;;21.84;74.35;101837.31;4958114;28;20043;-71
2023/10/09 13:01:43;;;;;;;20.40;8.15;;;;;;;21.85;74.14;101828.31;4947606;28;20050;-71
2023/10/09 13:04:16;;;;;;;18.20;7.80;;;;;;;21.81;74.84;101822.28;4954830;28;20106;-72
2023/10/09 13:06:45;;;;;;;15.85;7.38;;;;;;;21.84;74.82;101830.13;4961369;28;20042;-70
2023/10/09 13:09:35;;;;;;;15.40;7.72;;;;;;;21.86;73.75;101838.09;4959547;28;20066;-70
2023/10/09 13:12:03;;;;;;;15.75;7.03;;;;;;;21.81;73.50;101833.00;4958959;28;20042;-71
2023/10/09 13:14:35;;;;;;;15.25;7.10;;;;;;;21.77;74.19;101827.94;4965726;28;20046;-70
2023/10/09 13:17:09;;;;;;;12.32;7.75;;;;;;;21.73;74.63;101829.94;4956926;28;20039;-71
2023/10/09 13:19:37;;;;;;;12.68;6.75;;;;;;;21.72;74.31;101834.44;4963595;28;20063;-71
2023/10/09 13:22:12;;;;;;;11.82;6.65;;;;;;;21.74;73.91;101833.47;4962701;28;20113;-70
2023/10/09 13:24:41;;;;;;;15.77;7.20;;;;;;;21.70;73.84;101831.00;4963801;28;20066;-71
2023/10/09 13:27:09;;;;;;;16.60;7.95;;;;;;;21.66;74.80;101844.69;4968338;28;20069;-70
2023/10/09 13:29:41;;;;;;;15.82;7.70;;;;;;;21.67;75.29;101838.38;4957035;28;20114;-70
2023/10/09 13:32:15;;;;;;;13.52;7.20;;;;;;;21.70;75.01;101843.53;4954520;28;20038;-70
2023/10/09 13:34:44;;;;;;;20.10;7.93;;;;;;;21.71;75.21;101856.00;4969789;28;20176;-71
2023/10/09 13:37:13;;;;;;;13.15;7.57;;;;;;;21.72;75.26;101853.22;4968934;28;20097;-71
2023/10/09 13:39:52;;;;;;;18.33;7.70;;;;;;;21.76;74.95;101859.28;4960863;28;20054;-71
2023/10/09 13:42:19;;;;;;;17.73;7.60;;;;;;;21.87;74.34;101851.41;4967037;28;20055;-71
2023/10/09 13:44:48;;;;;;;13.57;7.07;;;;;;;21.96;74.01;101855.34;4969825;28;20035;-71
2023/10/09 13:47:25;;;;;;;15.45;7.72;;;;;;;21.93;73.92;101863.56;4968426;28;20054;-71
2023/10/09 13:49:53;;;;;;;12.80;7.72;;;;;;;21.99;74.45;101859.63;4967791;28;20081;-71
2023/10/09 13:52:21;;;;;;;13.18;7.38;;;;;;;22.04;74.34;101854.88;4969637;28;20050;-71
2023/10/09 13:54:50;;;;;;;12.73;7.43;;;;;;;22.09;73.96;101851.88;4960215;28;20035;-71
2023/10/09 13:57:22;;;;;;;16.05;7.47;;;;;;;22.07;74.14;101843.06;4962678;28;20459;-71
2023/10/09 13:59:49;;;;;;;15.27;7.47;;;;;;;;;;4964027;28;20050;-71